TOURFACTS.DK  
Stats and Facts from Tour de France.

Tour de France 2018 starts in 12 days
  Riders   Stages   Teams   Summits   Yearly  


 
Search by year

After 2017 - Stage 21:
 14824 starters.
  5132 different riders.
  639 teams.
  2232 stages.
  456 restdays.
  439589.60 km.
  5653 abandonnees.


Top 3
GC
Christopher Froome86:20:55
Rigoberto Urán86:21:49
Romain Bardet86:23:15
Climb
Warren Barguil169 pt.
Primoz Roglic80 pt.
Thomas De Gendt64 pt.
Sprint
Michael Matthews359 pt.
André Greipel234 pt.
Edvald Boasson Hagen220 pt.
Youth
Simon Yates86:27:09
Louis Meintjes86:29:15
Emanuel Buchmann86:54:16
Facts from Tour de France 1949
  |   Stages.  |   Stage winners.  |   Days in yellow  |   Average speed.  |   Route.  |   Teams.  |   All riders.  |   Rookies.  |  

  |   Withdrawls.  |   GC.  |   Polka  |   Green  |   White  |   Summits. (In tour)  |   Miscellaneous.  |  

Stage 1 on 30 - 06 - 1949
  
Pick a stage:  1 2 3 4 5 6 7 8 9 10 11 12 13 14 15 16 17 18 19 20 21
  ParisReims | Dist: 182.00 km.

Average speed for all riders in stage:  33,965 km./hr.
    Place:Name:Team:Time:Km/h:
FRAMarcel DussaultFRACenter-South West05:13:59  +  00:00:00=34,779 
BELLeon JomauxBELBelgium05:14:24  +  00:00:25=34,733 
FRAEloi TassinFRAWest-North05:14:24  +  00:00:25=34,733 
4 FRAPierre MolinerisFRASouth-East05:14:24  +  00:00:25=34,733 
5 BELRoger LambrechtBELBelgium05:14:24  +  00:00:25=34,733 
6 FRAJean RobicFRAWest-North05:15:11  +  00:01:12=34,647 
7 FRAJacques MarinelliFRAIle De France05:15:11  +  00:01:12=34,647 
8 BELRik Van SteenbergenBELBelgium05:15:24  +  00:01:25=34,623 
9 FRAAlbert DolhatsFRACenter-South West05:15:48  +  00:01:49=34,579 
10 FRALouis CaputFRAIle De France05:15:48  +  00:01:49=34,579 
11 FRAEmile IdéeFRAIle De France05:15:48  +  00:01:49=34,579 
12 FRAEdouard MullerFRAIle De France05:15:48  +  00:01:49=34,579 
13 ITAGino BartaliITAItaly05:15:48  +  00:01:49=34,579 
14 ITASerifano BiagioniITAItaly05:15:48  +  00:01:49=34,579 
15 ITAFausto CoppiITAItaly05:15:48  +  00:01:49=34,579 
16 ITAMario RicciITAItaly05:15:48  +  00:01:49=34,579 
17 BELRoger GhyselinckBELBelgium05:15:48  +  00:01:49=34,579 
18 BELNorbert CallensBELBelgium05:15:48  +  00:01:49=34,579 
19 BELRaymond ImpanisBELBelgium05:15:48  +  00:01:49=34,579 
20 BELDésiré KeteleerBELBelgium05:15:48  +  00:01:49=34,579 
21 BELStan OckersBELBelgium05:15:48  +  00:01:49=34,579 
22 BELBriek SchotteBELBelgium05:15:48  +  00:01:49=34,579 
23 FRALouison BobetFRAFrance05:15:48  +  00:01:49=34,579 
24 FRARobert ChapatteFRAFrance05:15:48  +  00:01:49=34,579 
25 FRALouis DeprezFRAFrance05:15:48  +  00:01:49=34,579 
26 FRAMaurice DiotFRAFrance05:15:48  +  00:01:49=34,579 
27 FRABernard GauthierFRAFrance05:15:48  +  00:01:49=34,579 
28 FRARaphaël GeminianiFRAFrance05:15:48  +  00:01:49=34,579 
29 FRAGuy LapébieFRAFrance05:15:48  +  00:01:49=34,579 
30 FRAJean-Apotre LazaridesFRAFrance05:15:48  +  00:01:49=34,579 
31 FRALucien LazaridesFRAFrance05:15:48  +  00:01:49=34,579 
32 FRALucien TeisseireFRAFrance05:15:48  +  00:01:49=34,579 
33 LUXJean GoldschmitLUXLuxembourg05:15:48  +  00:01:49=34,579 
34 LUXJean KirchenLUXLuxembourg05:15:48  +  00:01:49=34,579 
35 NEDWim De RuyterNLDHolland05:15:48  +  00:01:49=34,579 
36 NEDHuub SijenNLDHolland05:15:48  +  00:01:49=34,579 
37 ITAVittorio MagniITACadetti Italiens05:15:48  +  00:01:49=34,579 
38 ITAAlfredo MartiniITACadetti Italiens05:15:48  +  00:01:49=34,579 
39 BELMarcel De MulderBELAiglons Belges05:15:48  +  00:01:49=34,579 
40 BELMarcel DupontBELAiglons Belges05:15:48  +  00:01:49=34,579 
41 BELJacques GeusBELAiglons Belges05:15:48  +  00:01:49=34,579 
42 BELMarcel HendrickxBELAiglons Belges05:15:48  +  00:01:49=34,579 
43 FRAAndré BruléFRAIle De France05:15:48  +  00:01:49=34,579 
44 ITAAttilio RedolfiFRAIle De France05:15:48  +  00:01:49=34,579 
45 ITAGiuseppe TaccaFRAIle De France05:15:48  +  00:01:49=34,579 
46 FRAPierre CoganFRAWest-North05:15:48  +  00:01:49=34,579 
47 FRAJean-Marie GoasmatFRAWest-North05:15:48  +  00:01:49=34,579 
48 GEREdouard KlabinskiFRAWest-North05:15:48  +  00:01:49=34,579 
49 FRAAndre MahéFRAWest-North05:15:48  +  00:01:49=34,579 
50 FRARoger PontetFRAWest-North05:15:48  +  00:01:49=34,579 
51 FRAJean BlancFRACenter-South West05:15:48  +  00:01:49=34,579 
52 FRARobert DesbatsFRACenter-South West05:15:48  +  00:01:49=34,579 
53 ITABruno GaronziFRACenter-South West05:15:48  +  00:01:49=34,579 
54 FRARoger LevequeFRACenter-South West05:15:48  +  00:01:49=34,579 
55 FRAHenri MassalFRACenter-South West05:15:48  +  00:01:49=34,579 
56 ITAFermo CamelliniFRASouth-East05:15:48  +  00:01:49=34,579 
57 ITAÉdouard FachleitnerFRASouth-East05:15:48  +  00:01:49=34,579 
58 ITANello LaurediFRASouth-East05:15:48  +  00:01:49=34,579 
59 FRAPaul PineauFRACenter-South West05:15:48  +  00:01:49=34,579 
60 FRAAntonin RollandFRASouth-East05:15:48  +  00:01:49=34,579 
61 SUIFerdi KüblerCHESwitzerland05:15:48  +  00:01:49=34,579 
62 LUXJean DiederichLUXLuxembourg05:15:48  +  00:01:49=34,579 
63 LUXMarcel ErnzerLUXLuxembourg05:15:48  +  00:01:49=34,579 
64 FRARené ViettoFRAFrance05:16:14  +  00:02:15=34,531 
65 FRADominique ForliniFRAIle De France05:19:24  +  00:05:25=34,189 
66 ITAGino SciardisITAItaly05:19:24  +  00:05:25=34,189 
67 ITAAdolphe DeleddaFRASouth-East05:20:38  +  00:06:39=34,058 
68 FRAFrançois PersonFRAWest-North05:20:38  +  00:06:39=34,058 
69 LUXRené BieverLUXLuxembourg05:21:28  +  00:07:29=33,969 
70 FRAGeorges MartinFRASouth-East05:21:51  +  00:07:52=33,929 
71 SUIHans HutmacherCHESwitzerland05:21:51  +  00:07:52=33,929 
72 FRAAnge Le StratFRAWest-North05:21:51  +  00:07:52=33,929 
73 NEDAndré De KorverNLDHolland05:22:11  +  00:08:12=33,894 
74 FRAJean ReyFRASouth-East05:22:11  +  00:08:12=33,894 
75 BELEdward Van DijckBELBelgium05:22:11  +  00:08:12=33,894 
76 BELJean BreuerBELAiglons Belges05:22:11  +  00:08:12=33,894 
77 ITAEttore MilanoITAItaly05:22:11  +  00:08:12=33,894 
78 BELLucien MaelfaitFRAWest-North05:22:11  +  00:08:12=33,894 
79 BELMarcel KintBELBelgium05:22:11  +  00:08:12=33,894 
80 ESPJosé SerraESPSpain05:22:11  +  00:08:12=33,894 
81 SUIPierre BrambillaFRASouth-East05:22:11  +  00:08:12=33,894 
82 MARCustodio Dos ReisFRACenter-South West05:23:24  +  00:09:25=33,766 
83 BELFlorent MathieuBELBelgium05:23:24  +  00:09:25=33,766 
84 NEDFrans PauwelsNLDHolland05:23:24  +  00:09:25=33,766 
85 GERCésar MarcelakFRAWest-North05:23:24  +  00:09:25=33,766 
86 ITAGiuseppe CeramiITACadetti Italiens05:27:03  +  00:13:04=33,389 
87 ITALuciano PezziITAItaly05:27:03  +  00:13:04=33,389 
88 FRARobert DorgebrayFRAIle De France05:27:03  +  00:13:04=33,389 
89 ITASylvio PedroniITACadetti Italiens05:27:03  +  00:13:04=33,389 
90 SUIErnst StettlerCHESwitzerland05:27:03  +  00:13:04=33,389 
91 FRARaymond LucasFRAIle De France05:28:16  +  00:14:17=33,266 
92 FRAPaul GiguetFRASouth-East05:28:16  +  00:14:17=33,266 
93 FRARoger Le NizerhyFRAWest-North05:29:36  +  00:15:37=33,131 
94 FRAGeorges GuillierFRAIle De France05:29:36  +  00:15:37=33,131 
95 ITAGiovanni CorrieriITAItaly05:29:36  +  00:15:37=33,131 
96 BELJoseph VerhaertBELAiglons Belges05:29:36  +  00:15:37=33,131 
97 FRARoger BuchonnetFRACenter-South West05:29:36  +  00:15:37=33,131 
98 ITAPaul NeriFRASouth-East05:29:36  +  00:15:37=33,131 
99 ITAVincenzo RosselloITAItaly05:29:36  +  00:15:37=33,131 
100 FRARaoul RemyFRASouth-East05:29:36  +  00:15:37=33,131 
101 ITAGuido De SantiITAItaly05:29:36  +  00:15:37=33,131 
102 FRACamille DanguillaumeFRAFrance05:29:36  +  00:15:37=33,131 
103 ITABruno PasquiniITAItaly05:32:12  +  00:18:13=32,872 
104 SUIGottfried WeilenmannCHESwitzerland05:33:24  +  00:19:25=32,753 
105 FRAGeorges RamouluxFRACenter-South West05:33:24  +  00:19:25=32,753 
106 NEDHenk de HoogNLDHolland05:33:24  +  00:19:25=32,753 
107 NEDJan LambrichsNLDHolland05:33:24  +  00:19:25=32,753 
108 ESPDalmácio LangaricaESPSpain05:33:24  +  00:19:25=32,753 
109 SUIRoger AeschlimannCHESwitzerland05:33:24  +  00:19:25=32,753 
110 SUIGeorges AeschlimannCHESwitzerland05:33:24  +  00:19:25=32,753 
111 ITAAngelo BrignoleITAItaly05:34:37  +  00:20:38=32,634 
112 ITAGiuseppe AusendaITACadetti Italiens05:37:01  +  00:23:02=32,402 
113 ITAArmando PeverelliITACadetti Italiens05:37:01  +  00:23:02=32,402 
114 ESPJulián BerrenderoESPSpain05:42:32  +  00:28:33=31,880 
115 ESPBernardo RuízESPSpain05:42:32  +  00:28:33=31,880 
116 ESPEmilio RodriguezESPSpain05:42:32  +  00:28:33=31,880 
117 PORAntoine GomezFRACenter-South West05:42:32  +  00:28:33=31,880 
118 FRALouis ThiétardFRAIle De France05:42:32  +  00:28:33=31,880 

Withdrawls: 2
 
Rider
Team
Reason
47  LUXWilly KempLUXLuxembourgDid not finish
56  ESPBernardo CapoESPSpainDid not finish

Todays birthdays.

1875  Jules Sales
1888  Leon Lannoy
1922  Henri Surbatis
1932  Ferdinand Devèze
1939  Dieter Puschel
1961  Gerhard Zadrobilek
1964  Javier Duch
1965  Clarence Knickman
1968  Michael Sandstød
1986  Simon Spilak




Visits: